sensor_id;sensor_type;location;lat;lon;timestamp;P1;durP1;ratioP1;P2;durP2;ratioP2
75537;SDS011;64121;48.666;8.114;2022-12-18T00:01:48;43.08;;;20.60;;
75537;SDS011;64121;48.666;8.114;2022-12-18T00:04:15;44.67;;;20.70;;
75537;SDS011;64121;48.666;8.114;2022-12-18T00:06:44;37.38;;;19.80;;
75537;SDS011;64121;48.666;8.114;2022-12-18T00:09:10;53.28;;;20.38;;
75537;SDS011;64121;48.666;8.114;2022-12-18T00:11:37;46.00;;;21.95;;
75537;SDS011;64121;48.666;8.114;2022-12-18T00:14:02;40.65;;;19.95;;
75537;SDS011;64121;48.666;8.114;2022-12-18T00:16:28;39.83;;;19.00;;
75537;SDS011;64121;48.666;8.114;2022-12-18T00:18:55;33.15;;;16.05;;
75537;SDS011;64121;48.666;8.114;2022-12-18T00:21:23;37.63;;;17.27;;
75537;SDS011;64121;48.666;8.114;2022-12-18T00:23:49;49.22;;;20.52;;
75537;SDS011;64121;48.666;8.114;2022-12-18T00:26:16;40.53;;;19.50;;
75537;SDS011;64121;48.666;8.114;2022-12-18T00:28:44;42.50;;;20.83;;
75537;SDS011;64121;48.666;8.114;2022-12-18T00:31:11;35.47;;;16.85;;
75537;SDS011;64121;48.666;8.114;2022-12-18T00:33:38;34.83;;;15.48;;
75537;SDS011;64121;48.666;8.114;2022-12-18T00:36:04;40.67;;;17.73;;
75537;SDS011;64121;48.666;8.114;2022-12-18T00:38:31;38.08;;;17.38;;
75537;SDS011;64121;48.666;8.114;2022-12-18T00:40:56;42.92;;;17.65;;
75537;SDS011;64121;48.666;8.114;2022-12-18T00:43:21;40.75;;;19.42;;
75537;SDS011;64121;48.666;8.114;2022-12-18T00:45:48;43.00;;;19.20;;
75537;SDS011;64121;48.666;8.114;2022-12-18T00:48:13;41.20;;;17.65;;
75537;SDS011;64121;48.666;8.114;2022-12-18T00:50:39;37.58;;;16.65;;
75537;SDS011;64121;48.666;8.114;2022-12-18T00:53:04;34.83;;;17.70;;
75537;SDS011;64121;48.666;8.114;2022-12-18T00:55:30;35.55;;;16.45;;
75537;SDS011;64121;48.666;8.114;2022-12-18T00:57:55;38.15;;;16.05;;
75537;SDS011;64121;48.666;8.114;2022-12-18T01:00:21;35.08;;;16.05;;
75537;SDS011;64121;48.666;8.114;2022-12-18T01:02:48;37.75;;;17.40;;
75537;SDS011;64121;48.666;8.114;2022-12-18T01:05:13;32.95;;;16.55;;
75537;SDS011;64121;48.666;8.114;2022-12-18T01:07:39;39.67;;;16.42;;
75537;SDS011;64121;48.666;8.114;2022-12-18T01:10:05;44.22;;;16.67;;
75537;SDS011;64121;48.666;8.114;2022-12-18T01:12:31;38.58;;;17.83;;
75537;SDS011;64121;48.666;8.114;2022-12-18T01:14:57;49.10;;;18.58;;
75537;SDS011;64121;48.666;8.114;2022-12-18T01:17:22;44.88;;;18.13;;
75537;SDS011;64121;48.666;8.114;2022-12-18T01:19:49;35.28;;;17.20;;
75537;SDS011;64121;48.666;8.114;2022-12-18T01:22:15;40.17;;;16.48;;
75537;SDS011;64121;48.666;8.114;2022-12-18T01:24:40;32.97;;;16.10;;
75537;SDS011;64121;48.666;8.114;2022-12-18T01:27:06;38.40;;;16.17;;
75537;SDS011;64121;48.666;8.114;2022-12-18T01:29:31;43.55;;;17.65;;
75537;SDS011;64121;48.666;8.114;2022-12-18T01:31:56;29.23;;;15.00;;
75537;SDS011;64121;48.666;8.114;2022-12-18T01:34:22;38.92;;;16.77;;
75537;SDS011;64121;48.666;8.114;2022-12-18T01:36:48;40.65;;;16.50;;
75537;SDS011;64121;48.666;8.114;2022-12-18T01:39:14;30.80;;;15.18;;
75537;SDS011;64121;48.666;8.114;2022-12-18T01:41:40;34.72;;;15.13;;
75537;SDS011;64121;48.666;8.114;2022-12-18T01:47:04;37.97;;;16.00;;
75537;SDS011;64121;48.666;8.114;2022-12-18T01:49:30;48.42;;;17.30;;
75537;SDS011;64121;48.666;8.114;2022-12-18T01:51:57;48.85;;;17.38;;
75537;SDS011;64121;48.666;8.114;2022-12-18T01:54:22;36.92;;;14.90;;
75537;SDS011;64121;48.666;8.114;2022-12-18T01:56:47;34.28;;;15.00;;
75537;SDS011;64121;48.666;8.114;2022-12-18T01:59:13;40.25;;;16.48;;
75537;SDS011;64121;48.666;8.114;2022-12-18T02:01:38;33.15;;;14.55;;
75537;SDS011;64121;48.666;8.114;2022-12-18T02:04:16;34.38;;;15.43;;
75537;SDS011;64121;48.666;8.114;2022-12-18T02:06:46;35.88;;;16.17;;
75537;SDS011;64121;48.666;8.114;2022-12-18T02:09:18;30.80;;;14.32;;
75537;SDS011;64121;48.666;8.114;2022-12-18T02:11:53;35.10;;;15.88;;
75537;SDS011;64121;48.666;8.114;2022-12-18T02:14:26;35.63;;;16.70;;
75537;SDS011;64121;48.666;8.114;2022-12-18T02:16:59;37.63;;;15.98;;
75537;SDS011;64121;48.666;8.114;2022-12-18T02:19:37;39.58;;;16.58;;
75537;SDS011;64121;48.666;8.114;2022-12-18T02:22:13;31.98;;;15.60;;
75537;SDS011;64121;48.666;8.114;2022-12-18T02:24:54;40.28;;;17.70;;
75537;SDS011;64121;48.666;8.114;2022-12-18T02:27:31;41.65;;;16.73;;
75537;SDS011;64121;48.666;8.114;2022-12-18T02:29:59;37.40;;;15.90;;
75537;SDS011;64121;48.666;8.114;2022-12-18T02:32:27;45.15;;;17.15;;
75537;SDS011;64121;48.666;8.114;2022-12-18T02:34:55;42.25;;;16.27;;
75537;SDS011;64121;48.666;8.114;2022-12-18T02:37:23;52.50;;;16.27;;
75537;SDS011;64121;48.666;8.114;2022-12-18T02:39:52;35.90;;;16.60;;
75537;SDS011;64121;48.666;8.114;2022-12-18T02:42:21;46.40;;;16.80;;
75537;SDS011;64121;48.666;8.114;2022-12-18T02:44:49;59.85;;;19.85;;
75537;SDS011;64121;48.666;8.114;2022-12-18T02:47:17;32.80;;;15.55;;
75537;SDS011;64121;48.666;8.114;2022-12-18T02:49:46;46.30;;;15.52;;
75537;SDS011;64121;48.666;8.114;2022-12-18T02:52:19;49.25;;;19.55;;
75537;SDS011;64121;48.666;8.114;2022-12-18T02:54:57;33.33;;;16.92;;
75537;SDS011;64121;48.666;8.114;2022-12-18T02:57:34;35.63;;;16.20;;
75537;SDS011;64121;48.666;8.114;2022-12-18T03:00:04;35.70;;;14.57;;
75537;SDS011;64121;48.666;8.114;2022-12-18T03:02:35;32.90;;;14.90;;
75537;SDS011;64121;48.666;8.114;2022-12-18T03:05:05;36.08;;;16.00;;
75537;SDS011;64121;48.666;8.114;2022-12-18T03:07:36;31.15;;;14.40;;
75537;SDS011;64121;48.666;8.114;2022-12-18T03:10:06;31.63;;;15.23;;
75537;SDS011;64121;48.666;8.114;2022-12-18T03:12:37;28.73;;;14.77;;
75537;SDS011;64121;48.666;8.114;2022-12-18T03:15:10;40.03;;;17.35;;
75537;SDS011;64121;48.666;8.114;2022-12-18T03:17:40;35.47;;;14.85;;
75537;SDS011;64121;48.666;8.114;2022-12-18T03:20:10;41.70;;;17.58;;
75537;SDS011;64121;48.666;8.114;2022-12-18T03:22:38;37.45;;;16.00;;
75537;SDS011;64121;48.666;8.114;2022-12-18T03:25:07;39.50;;;14.13;;
75537;SDS011;64121;48.666;8.114;2022-12-18T03:27:36;52.83;;;15.85;;
75537;SDS011;64121;48.666;8.114;2022-12-18T03:30:06;37.22;;;15.27;;
75537;SDS011;64121;48.666;8.114;2022-12-18T03:32:38;45.63;;;17.30;;
75537;SDS011;64121;48.666;8.114;2022-12-18T03:35:07;41.40;;;17.02;;
75537;SDS011;64121;48.666;8.114;2022-12-18T03:37:39;43.55;;;16.95;;
75537;SDS011;64121;48.666;8.114;2022-12-18T03:40:05;39.20;;;15.68;;
75537;SDS011;64121;48.666;8.114;2022-12-18T03:42:32;48.83;;;17.13;;
75537;SDS011;64121;48.666;8.114;2022-12-18T03:45:08;41.05;;;17.30;;
75537;SDS011;64121;48.666;8.114;2022-12-18T03:47:38;35.78;;;15.25;;
75537;SDS011;64121;48.666;8.114;2022-12-18T03:50:10;47.40;;;16.38;;
75537;SDS011;64121;48.666;8.114;2022-12-18T03:52:40;47.92;;;15.70;;
75537;SDS011;64121;48.666;8.114;2022-12-18T03:55:12;37.05;;;18.33;;
75537;SDS011;64121;48.666;8.114;2022-12-18T03:57:37;46.50;;;18.38;;
75537;SDS011;64121;48.666;8.114;2022-12-18T04:00:05;42.05;;;16.10;;
75537;SDS011;64121;48.666;8.114;2022-12-18T04:02:35;38.40;;;17.00;;
75537;SDS011;64121;48.666;8.114;2022-12-18T04:05:04;35.35;;;15.82;;
75537;SDS011;64121;48.666;8.114;2022-12-18T04:07:32;36.50;;;16.33;;
75537;SDS011;64121;48.666;8.114;2022-12-18T04:09:58;37.83;;;16.42;;
75537;SDS011;64121;48.666;8.114;2022-12-18T04:12:24;38.90;;;16.52;;
75537;SDS011;64121;48.666;8.114;2022-12-18T04:14:50;42.83;;;17.02;;
75537;SDS011;64121;48.666;8.114;2022-12-18T04:17:15;38.05;;;14.98;;
75537;SDS011;64121;48.666;8.114;2022-12-18T04:19:42;41.65;;;16.25;;
75537;SDS011;64121;48.666;8.114;2022-12-18T04:22:08;34.67;;;16.10;;
75537;SDS011;64121;48.666;8.114;2022-12-18T04:24:34;33.90;;;15.18;;
75537;SDS011;64121;48.666;8.114;2022-12-18T04:26:59;42.75;;;17.48;;
75537;SDS011;64121;48.666;8.114;2022-12-18T04:29:24;34.03;;;16.33;;
75537;SDS011;64121;48.666;8.114;2022-12-18T04:31:50;27.02;;;15.02;;
75537;SDS011;64121;48.666;8.114;2022-12-18T04:34:15;29.05;;;13.90;;
75537;SDS011;64121;48.666;8.114;2022-12-18T04:36:42;36.63;;;14.57;;
75537;SDS011;64121;48.666;8.114;2022-12-18T04:39:07;31.40;;;13.48;;
75537;SDS011;64121;48.666;8.114;2022-12-18T04:41:33;29.65;;;13.55;;
75537;SDS011;64121;48.666;8.114;2022-12-18T04:43:58;28.77;;;14.80;;
75537;SDS011;64121;48.666;8.114;2022-12-18T04:46:23;39.13;;;16.85;;
75537;SDS011;64121;48.666;8.114;2022-12-18T04:48:48;38.53;;;15.52;;
75537;SDS011;64121;48.666;8.114;2022-12-18T04:51:14;31.83;;;14.90;;
75537;SDS011;64121;48.666;8.114;2022-12-18T04:53:41;35.38;;;15.10;;
75537;SDS011;64121;48.666;8.114;2022-12-18T04:56:06;34.13;;;13.77;;
75537;SDS011;64121;48.666;8.114;2022-12-18T04:58:34;29.73;;;14.80;;
75537;SDS011;64121;48.666;8.114;2022-12-18T05:01:00;34.22;;;12.70;;
75537;SDS011;64121;48.666;8.114;2022-12-18T05:03:26;30.48;;;13.43;;
75537;SDS011;64121;48.666;8.114;2022-12-18T05:05:51;32.50;;;13.32;;
75537;SDS011;64121;48.666;8.114;2022-12-18T05:08:16;34.22;;;12.93;;
75537;SDS011;64121;48.666;8.114;2022-12-18T05:10:43;28.95;;;12.85;;
75537;SDS011;64121;48.666;8.114;2022-12-18T05:13:09;31.45;;;12.35;;
75537;SDS011;64121;48.666;8.114;2022-12-18T05:15:35;45.40;;;16.83;;
75537;SDS011;64121;48.666;8.114;2022-12-18T05:18:00;27.92;;;12.60;;
75537;SDS011;64121;48.666;8.114;2022-12-18T05:20:26;38.00;;;13.13;;
75537;SDS011;64121;48.666;8.114;2022-12-18T05:22:53;32.47;;;14.65;;
75537;SDS011;64121;48.666;8.114;2022-12-18T05:25:19;30.45;;;13.57;;
75537;SDS011;64121;48.666;8.114;2022-12-18T05:27:46;38.38;;;16.70;;
75537;SDS011;64121;48.666;8.114;2022-12-18T05:30:12;34.90;;;12.98;;
75537;SDS011;64121;48.666;8.114;2022-12-18T05:32:38;32.38;;;14.85;;
75537;SDS011;64121;48.666;8.114;2022-12-18T05:35:04;33.85;;;14.57;;
75537;SDS011;64121;48.666;8.114;2022-12-18T05:37:31;40.53;;;13.98;;
75537;SDS011;64121;48.666;8.114;2022-12-18T05:39:57;34.28;;;15.40;;
75537;SDS011;64121;48.666;8.114;2022-12-18T05:42:22;36.35;;;13.30;;
75537;SDS011;64121;48.666;8.114;2022-12-18T05:44:49;31.58;;;13.52;;
75537;SDS011;64121;48.666;8.114;2022-12-18T05:47:14;32.28;;;13.93;;
75537;SDS011;64121;48.666;8.114;2022-12-18T05:49:39;30.08;;;11.88;;
75537;SDS011;64121;48.666;8.114;2022-12-18T05:52:05;26.20;;;11.70;;
75537;SDS011;64121;48.666;8.114;2022-12-18T05:54:30;30.40;;;14.70;;
75537;SDS011;64121;48.666;8.114;2022-12-18T05:56:55;25.20;;;13.18;;
75537;SDS011;64121;48.666;8.114;2022-12-18T05:59:21;33.53;;;13.27;;
75537;SDS011;64121;48.666;8.114;2022-12-18T06:01:47;35.97;;;13.93;;
75537;SDS011;64121;48.666;8.114;2022-12-18T06:04:13;29.10;;;12.38;;
75537;SDS011;64121;48.666;8.114;2022-12-18T06:06:38;33.40;;;12.93;;
75537;SDS011;64121;48.666;8.114;2022-12-18T06:09:04;35.03;;;13.18;;
75537;SDS011;64121;48.666;8.114;2022-12-18T06:11:29;28.92;;;11.73;;
75537;SDS011;64121;48.666;8.114;2022-12-18T06:13:55;36.10;;;13.60;;
75537;SDS011;64121;48.666;8.114;2022-12-18T06:16:21;34.75;;;13.68;;
75537;SDS011;64121;48.666;8.114;2022-12-18T06:18:48;31.08;;;12.57;;
75537;SDS011;64121;48.666;8.114;2022-12-18T06:21:13;27.90;;;12.80;;
75537;SDS011;64121;48.666;8.114;2022-12-18T06:23:39;28.20;;;12.18;;
75537;SDS011;64121;48.666;8.114;2022-12-18T06:26:04;28.90;;;12.80;;
75537;SDS011;64121;48.666;8.114;2022-12-18T06:28:30;29.48;;;12.35;;
75537;SDS011;64121;48.666;8.114;2022-12-18T06:30:56;26.30;;;12.27;;
75537;SDS011;64121;48.666;8.114;2022-12-18T06:33:21;26.23;;;12.30;;
75537;SDS011;64121;48.666;8.114;2022-12-18T06:35:48;32.53;;;13.48;;
75537;SDS011;64121;48.666;8.114;2022-12-18T06:38:13;30.73;;;11.95;;
75537;SDS011;64121;48.666;8.114;2022-12-18T06:40:38;25.38;;;11.63;;
75537;SDS011;64121;48.666;8.114;2022-12-18T06:43:04;27.55;;;11.20;;
75537;SDS011;64121;48.666;8.114;2022-12-18T06:45:29;24.35;;;11.93;;
75537;SDS011;64121;48.666;8.114;2022-12-18T06:47:54;29.73;;;13.10;;
75537;SDS011;64121;48.666;8.114;2022-12-18T06:50:20;32.25;;;11.88;;
75537;SDS011;64121;48.666;8.114;2022-12-18T06:52:46;26.85;;;12.13;;
75537;SDS011;64121;48.666;8.114;2022-12-18T06:55:12;28.55;;;12.48;;
75537;SDS011;64121;48.666;8.114;2022-12-18T06:57:37;29.65;;;13.15;;
75537;SDS011;64121;48.666;8.114;2022-12-18T07:00:03;21.95;;;10.30;;
75537;SDS011;64121;48.666;8.114;2022-12-18T07:02:30;24.20;;;11.70;;
75537;SDS011;64121;48.666;8.114;2022-12-18T07:04:56;28.27;;;12.52;;
75537;SDS011;64121;48.666;8.114;2022-12-18T07:07:21;25.98;;;13.05;;
75537;SDS011;64121;48.666;8.114;2022-12-18T07:09:48;27.60;;;10.77;;
75537;SDS011;64121;48.666;8.114;2022-12-18T07:12:14;24.25;;;11.30;;
75537;SDS011;64121;48.666;8.114;2022-12-18T07:14:39;22.70;;;11.68;;
75537;SDS011;64121;48.666;8.114;2022-12-18T07:17:05;27.35;;;12.30;;
75537;SDS011;64121;48.666;8.114;2022-12-18T07:19:30;25.73;;;10.88;;
75537;SDS011;64121;48.666;8.114;2022-12-18T07:21:55;30.23;;;13.07;;
75537;SDS011;64121;48.666;8.114;2022-12-18T07:24:21;27.95;;;12.50;;
75537;SDS011;64121;48.666;8.114;2022-12-18T07:26:47;30.98;;;12.35;;
75537;SDS011;64121;48.666;8.114;2022-12-18T07:29:13;24.48;;;10.43;;
75537;SDS011;64121;48.666;8.114;2022-12-18T07:31:38;30.05;;;13.60;;
75537;SDS011;64121;48.666;8.114;2022-12-18T07:34:04;24.15;;;12.07;;
75537;SDS011;64121;48.666;8.114;2022-12-18T07:36:29;30.25;;;12.90;;
75537;SDS011;64121;48.666;8.114;2022-12-18T07:38:54;28.25;;;11.68;;
75537;SDS011;64121;48.666;8.114;2022-12-18T07:41:20;24.67;;;11.57;;
75537;SDS011;64121;48.666;8.114;2022-12-18T07:43:47;25.75;;;11.40;;
75537;SDS011;64121;48.666;8.114;2022-12-18T07:46:13;27.98;;;12.60;;
75537;SDS011;64121;48.666;8.114;2022-12-18T07:48:39;28.17;;;12.45;;
75537;SDS011;64121;48.666;8.114;2022-12-18T07:51:05;33.28;;;12.65;;
75537;SDS011;64121;48.666;8.114;2022-12-18T07:53:32;26.00;;;11.10;;
75537;SDS011;64121;48.666;8.114;2022-12-18T07:55:58;29.90;;;12.25;;
75537;SDS011;64121;48.666;8.114;2022-12-18T07:58:25;35.40;;;15.63;;
75537;SDS011;64121;48.666;8.114;2022-12-18T08:00:51;31.13;;;13.15;;
75537;SDS011;64121;48.666;8.114;2022-12-18T08:03:17;30.92;;;14.30;;
75537;SDS011;64121;48.666;8.114;2022-12-18T08:05:42;28.90;;;14.63;;
75537;SDS011;64121;48.666;8.114;2022-12-18T08:08:08;32.88;;;16.05;;
75537;SDS011;64121;48.666;8.114;2022-12-18T08:10:33;35.03;;;15.52;;
75537;SDS011;64121;48.666;8.114;2022-12-18T08:12:58;27.52;;;12.20;;
75537;SDS011;64121;48.666;8.114;2022-12-18T08:15:24;31.80;;;12.57;;
75537;SDS011;64121;48.666;8.114;2022-12-18T08:17:50;32.05;;;12.63;;
75537;SDS011;64121;48.666;8.114;2022-12-18T08:20:16;28.80;;;12.90;;
75537;SDS011;64121;48.666;8.114;2022-12-18T08:22:41;27.30;;;12.93;;
75537;SDS011;64121;48.666;8.114;2022-12-18T08:25:07;32.22;;;13.15;;
75537;SDS011;64121;48.666;8.114;2022-12-18T08:27:33;32.22;;;14.23;;
75537;SDS011;64121;48.666;8.114;2022-12-18T08:29:58;34.80;;;13.52;;
75537;SDS011;64121;48.666;8.114;2022-12-18T08:32:23;35.83;;;14.43;;
75537;SDS011;64121;48.666;8.114;2022-12-18T08:34:50;29.23;;;13.45;;
75537;SDS011;64121;48.666;8.114;2022-12-18T08:37:15;41.40;;;15.63;;
75537;SDS011;64121;48.666;8.114;2022-12-18T08:39:41;35.33;;;14.65;;
75537;SDS011;64121;48.666;8.114;2022-12-18T08:42:06;33.28;;;13.45;;
75537;SDS011;64121;48.666;8.114;2022-12-18T08:44:32;26.13;;;13.15;;
75537;SDS011;64121;48.666;8.114;2022-12-18T08:46:57;32.20;;;13.05;;
75537;SDS011;64121;48.666;8.114;2022-12-18T08:49:23;32.97;;;14.18;;
75537;SDS011;64121;48.666;8.114;2022-12-18T08:51:49;32.67;;;14.13;;
75537;SDS011;64121;48.666;8.114;2022-12-18T08:54:19;30.85;;;13.95;;
75537;SDS011;64121;48.666;8.114;2022-12-18T08:56:44;27.13;;;12.13;;
75537;SDS011;64121;48.666;8.114;2022-12-18T08:59:09;30.73;;;12.75;;
75537;SDS011;64121;48.666;8.114;2022-12-18T09:01:35;29.23;;;12.20;;
75537;SDS011;64121;48.666;8.114;2022-12-18T09:04:00;29.02;;;12.98;;
75537;SDS011;64121;48.666;8.114;2022-12-18T09:06:25;28.55;;;12.60;;
75537;SDS011;64121;48.666;8.114;2022-12-18T09:08:52;30.95;;;13.75;;
75537;SDS011;64121;48.666;8.114;2022-12-18T09:11:19;32.35;;;13.90;;
75537;SDS011;64121;48.666;8.114;2022-12-18T09:13:45;27.67;;;13.80;;
75537;SDS011;64121;48.666;8.114;2022-12-18T09:16:11;33.83;;;15.10;;
75537;SDS011;64121;48.666;8.114;2022-12-18T09:18:36;35.47;;;14.18;;
75537;SDS011;64121;48.666;8.114;2022-12-18T09:21:07;33.63;;;14.13;;
75537;SDS011;64121;48.666;8.114;2022-12-18T09:23:33;28.92;;;13.15;;
75537;SDS011;64121;48.666;8.114;2022-12-18T09:25:59;35.50;;;13.88;;
75537;SDS011;64121;48.666;8.114;2022-12-18T09:28:25;28.80;;;13.65;;
75537;SDS011;64121;48.666;8.114;2022-12-18T09:30:50;32.58;;;14.82;;
75537;SDS011;64121;48.666;8.114;2022-12-18T09:33:16;33.28;;;12.57;;
75537;SDS011;64121;48.666;8.114;2022-12-18T09:35:42;29.10;;;13.20;;
75537;SDS011;64121;48.666;8.114;2022-12-18T09:38:09;30.73;;;14.25;;
75537;SDS011;64121;48.666;8.114;2022-12-18T09:40:39;32.22;;;15.05;;
75537;SDS011;64121;48.666;8.114;2022-12-18T09:43:12;35.50;;;15.48;;
75537;SDS011;64121;48.666;8.114;2022-12-18T09:45:43;26.67;;;12.93;;
75537;SDS011;64121;48.666;8.114;2022-12-18T09:48:14;32.28;;;14.20;;
75537;SDS011;64121;48.666;8.114;2022-12-18T09:50:44;27.48;;;13.18;;
75537;SDS011;64121;48.666;8.114;2022-12-18T09:53:12;31.73;;;13.30;;
75537;SDS011;64121;48.666;8.114;2022-12-18T09:55:44;31.00;;;13.48;;
75537;SDS011;64121;48.666;8.114;2022-12-18T09:58:14;33.35;;;13.88;;
75537;SDS011;64121;48.666;8.114;2022-12-18T10:00:44;28.25;;;13.35;;
75537;SDS011;64121;48.666;8.114;2022-12-18T10:03:10;32.63;;;13.75;;
75537;SDS011;64121;48.666;8.114;2022-12-18T10:05:37;29.92;;;13.02;;
75537;SDS011;64121;48.666;8.114;2022-12-18T10:08:11;32.55;;;14.27;;
75537;SDS011;64121;48.666;8.114;2022-12-18T10:10:43;31.05;;;13.73;;
75537;SDS011;64121;48.666;8.114;2022-12-18T10:13:20;32.38;;;14.73;;
75537;SDS011;64121;48.666;8.114;2022-12-18T10:15:56;30.08;;;13.98;;
75537;SDS011;64121;48.666;8.114;2022-12-18T10:18:32;32.13;;;14.32;;
75537;SDS011;64121;48.666;8.114;2022-12-18T10:21:10;29.80;;;13.52;;
75537;SDS011;64121;48.666;8.114;2022-12-18T10:23:42;25.65;;;12.82;;
75537;SDS011;64121;48.666;8.114;2022-12-18T10:26:13;27.98;;;14.48;;
75537;SDS011;64121;48.666;8.114;2022-12-18T10:28:40;34.38;;;13.82;;
75537;SDS011;64121;48.666;8.114;2022-12-18T10:31:06;30.52;;;13.50;;
75537;SDS011;64121;48.666;8.114;2022-12-18T10:33:32;28.63;;;13.10;;
75537;SDS011;64121;48.666;8.114;2022-12-18T10:35:58;27.25;;;13.90;;
75537;SDS011;64121;48.666;8.114;2022-12-18T10:38:25;34.95;;;16.48;;
75537;SDS011;64121;48.666;8.114;2022-12-18T10:40:52;32.38;;;13.48;;
75537;SDS011;64121;48.666;8.114;2022-12-18T10:43:20;29.33;;;13.52;;
75537;SDS011;64121;48.666;8.114;2022-12-18T10:45:59;30.60;;;14.50;;
75537;SDS011;64121;48.666;8.114;2022-12-18T10:48:27;34.95;;;14.27;;
75537;SDS011;64121;48.666;8.114;2022-12-18T10:50:54;32.88;;;16.70;;
75537;SDS011;64121;48.666;8.114;2022-12-18T10:53:21;33.97;;;15.52;;
75537;SDS011;64121;48.666;8.114;2022-12-18T10:55:48;38.40;;;16.67;;
75537;SDS011;64121;48.666;8.114;2022-12-18T10:58:16;36.00;;;15.80;;
75537;SDS011;64121;48.666;8.114;2022-12-18T11:01:01;31.63;;;15.32;;
75537;SDS011;64121;48.666;8.114;2022-12-18T11:03:31;27.75;;;13.00;;
75537;SDS011;64121;48.666;8.114;2022-12-18T11:06:01;31.60;;;14.93;;
75537;SDS011;64121;48.666;8.114;2022-12-18T11:08:28;34.03;;;14.90;;
75537;SDS011;64121;48.666;8.114;2022-12-18T11:10:53;31.63;;;14.48;;
75537;SDS011;64121;48.666;8.114;2022-12-18T11:13:19;36.35;;;15.93;;
75537;SDS011;64121;48.666;8.114;2022-12-18T11:15:47;30.30;;;14.45;;
75537;SDS011;64121;48.666;8.114;2022-12-18T11:18:18;33.03;;;16.63;;
75537;SDS011;64121;48.666;8.114;2022-12-18T11:20:50;32.70;;;16.50;;
75537;SDS011;64121;48.666;8.114;2022-12-18T11:23:18;30.67;;;15.02;;
75537;SDS011;64121;48.666;8.114;2022-12-18T11:25:50;30.92;;;15.50;;
75537;SDS011;64121;48.666;8.114;2022-12-18T11:28:25;26.92;;;12.88;;
75537;SDS011;64121;48.666;8.114;2022-12-18T11:30:54;31.88;;;14.48;;
75537;SDS011;64121;48.666;8.114;2022-12-18T11:33:39;31.40;;;13.32;;
75537;SDS011;64121;48.666;8.114;2022-12-18T11:36:07;29.55;;;14.27;;
75537;SDS011;64121;48.666;8.114;2022-12-18T11:38:35;30.95;;;14.85;;
75537;SDS011;64121;48.666;8.114;2022-12-18T11:41:04;36.53;;;15.73;;
75537;SDS011;64121;48.666;8.114;2022-12-18T11:43:40;30.67;;;13.75;;
75537;SDS011;64121;48.666;8.114;2022-12-18T11:46:10;34.00;;;15.57;;
75537;SDS011;64121;48.666;8.114;2022-12-18T11:48:43;28.27;;;14.70;;
75537;SDS011;64121;48.666;8.114;2022-12-18T11:51:14;33.47;;;14.52;;
75537;SDS011;64121;48.666;8.114;2022-12-18T11:53:43;28.80;;;14.13;;
75537;SDS011;64121;48.666;8.114;2022-12-18T11:56:14;33.30;;;15.55;;
75537;SDS011;64121;48.666;8.114;2022-12-18T11:58:57;38.65;;;15.70;;
75537;SDS011;64121;48.666;8.114;2022-12-18T12:01:34;34.03;;;15.93;;
75537;SDS011;64121;48.666;8.114;2022-12-18T12:04:17;33.15;;;16.02;;
75537;SDS011;64121;48.666;8.114;2022-12-18T12:07:04;33.65;;;15.50;;
75537;SDS011;64121;48.666;8.114;2022-12-18T12:09:40;36.35;;;16.50;;
75537;SDS011;64121;48.666;8.114;2022-12-18T12:12:16;33.20;;;16.92;;
75537;SDS011;64121;48.666;8.114;2022-12-18T12:14:52;36.58;;;17.13;;
75537;SDS011;64121;48.666;8.114;2022-12-18T12:17:25;46.22;;;20.35;;
75537;SDS011;64121;48.666;8.114;2022-12-18T12:20:00;41.50;;;16.67;;
75537;SDS011;64121;48.666;8.114;2022-12-18T12:22:33;38.20;;;18.13;;
75537;SDS011;64121;48.666;8.114;2022-12-18T12:25:14;30.58;;;15.95;;
75537;SDS011;64121;48.666;8.114;2022-12-18T12:27:48;41.05;;;16.67;;
75537;SDS011;64121;48.666;8.114;2022-12-18T12:30:26;37.80;;;16.73;;
75537;SDS011;64121;48.666;8.114;2022-12-18T12:33:00;44.20;;;18.10;;
75537;SDS011;64121;48.666;8.114;2022-12-18T12:38:12;34.97;;;16.43;;
75537;SDS011;64121;48.666;8.114;2022-12-18T12:40:41;37.67;;;16.50;;
75537;SDS011;64121;48.666;8.114;2022-12-18T12:43:12;35.03;;;15.98;;
75537;SDS011;64121;48.666;8.114;2022-12-18T12:45:46;36.25;;;18.15;;
75537;SDS011;64121;48.666;8.114;2022-12-18T12:48:16;35.28;;;15.35;;
75537;SDS011;64121;48.666;8.114;2022-12-18T12:50:46;36.78;;;16.98;;
75537;SDS011;64121;48.666;8.114;2022-12-18T12:53:21;42.42;;;17.92;;
75537;SDS011;64121;48.666;8.114;2022-12-18T12:55:51;36.60;;;17.77;;
75537;SDS011;64121;48.666;8.114;2022-12-18T12:58:19;38.05;;;18.40;;
75537;SDS011;64121;48.666;8.114;2022-12-18T13:00:55;37.65;;;17.60;;
75537;SDS011;64121;48.666;8.114;2022-12-18T13:03:31;38.42;;;20.20;;
75537;SDS011;64121;48.666;8.114;2022-12-18T13:06:08;39.22;;;17.92;;
75537;SDS011;64121;48.666;8.114;2022-12-18T13:08:51;39.05;;;17.23;;
75537;SDS011;64121;48.666;8.114;2022-12-18T13:11:28;43.70;;;19.50;;
75537;SDS011;64121;48.666;8.114;2022-12-18T13:13:56;44.83;;;20.80;;
75537;SDS011;64121;48.666;8.114;2022-12-18T13:16:22;42.72;;;17.88;;
75537;SDS011;64121;48.666;8.114;2022-12-18T13:18:49;35.30;;;18.30;;
75537;SDS011;64121;48.666;8.114;2022-12-18T13:21:18;37.75;;;18.35;;
75537;SDS011;64121;48.666;8.114;2022-12-18T13:23:48;45.97;;;20.10;;
75537;SDS011;64121;48.666;8.114;2022-12-18T13:26:32;41.90;;;18.65;;
75537;SDS011;64121;48.666;8.114;2022-12-18T13:29:00;36.17;;;16.75;;
75537;SDS011;64121;48.666;8.114;2022-12-18T13:34:31;40.15;;;18.98;;
75537;SDS011;64121;48.666;8.114;2022-12-18T13:40:02;44.00;;;20.70;;
75537;SDS011;64121;48.666;8.114;2022-12-18T13:42:48;34.45;;;17.52;;
75537;SDS011;64121;48.666;8.114;2022-12-18T13:48:03;41.35;;;18.50;;
75537;SDS011;64121;48.666;8.114;2022-12-18T13:50:29;41.03;;;20.45;;
75537;SDS011;64121;48.666;8.114;2022-12-18T13:52:57;37.03;;;17.33;;
75537;SDS011;64121;48.666;8.114;2022-12-18T13:55:22;38.40;;;18.38;;
75537;SDS011;64121;48.666;8.114;2022-12-18T13:57:48;39.28;;;19.95;;
75537;SDS011;64121;48.666;8.114;2022-12-18T14:00:23;35.83;;;16.20;;
75537;SDS011;64121;48.666;8.114;2022-12-18T14:02:50;44.10;;;18.60;;
75537;SDS011;64121;48.666;8.114;2022-12-18T14:05:21;45.33;;;21.40;;
75537;SDS011;64121;48.666;8.114;2022-12-18T14:07:47;36.13;;;18.30;;
75537;SDS011;64121;48.666;8.114;2022-12-18T14:10:14;32.60;;;16.42;;
75537;SDS011;64121;48.666;8.114;2022-12-18T14:12:44;32.47;;;18.10;;
75537;SDS011;64121;48.666;8.114;2022-12-18T14:15:15;37.22;;;18.70;;
75537;SDS011;64121;48.666;8.114;2022-12-18T14:17:49;39.10;;;17.33;;
75537;SDS011;64121;48.666;8.114;2022-12-18T14:20:15;37.30;;;17.83;;
75537;SDS011;64121;48.666;8.114;2022-12-18T14:22:42;35.60;;;16.77;;
75537;SDS011;64121;48.666;8.114;2022-12-18T14:25:18;44.38;;;17.83;;
75537;SDS011;64121;48.666;8.114;2022-12-18T14:27:45;37.40;;;18.20;;
75537;SDS011;64121;48.666;8.114;2022-12-18T14:30:23;42.72;;;19.48;;
75537;SDS011;64121;48.666;8.114;2022-12-18T14:33:00;43.72;;;19.70;;
75537;SDS011;64121;48.666;8.114;2022-12-18T14:35:26;42.65;;;20.30;;
75537;SDS011;64121;48.666;8.114;2022-12-18T14:37:51;44.92;;;18.08;;
75537;SDS011;64121;48.666;8.114;2022-12-18T14:40:18;38.50;;;16.95;;
75537;SDS011;64121;48.666;8.114;2022-12-18T14:42:43;36.92;;;16.73;;